Time;durP1;ratioP1;P1;durP2;ratioP2;P2;SDS_P1;SDS_P2;PMS_P1;PMS_P2;Temp;Humidity;BMP_temperature;BMP_pressure;BME280_temperature;BME280_humidity;BME280_pressure;Samples;Min_cycle;Max_cycle;Signal;HPM_P1;HPM_P2
2024/04/11 00:02:13;;;;;;;12.27;5.73;;;6.80;99.90;;;;;;5455660;26;20286;-79
2024/04/11 00:04:42;;;;;;;9.57;6.20;;;6.90;99.90;;;;;;5449141;26;20269;-79
2024/04/11 00:07:08;;;;;;;15.90;6.17;;;6.80;99.90;;;;;;5437838;26;20608;-79
2024/04/11 00:09:37;;;;;;;11.33;5.90;;;6.80;1.00;;;;;;5423633;26;20267;-79
2024/04/11 00:12:03;;;;;;;12.43;5.60;;;6.70;99.90;;;;;;5436047;26;20216;-78
2024/04/11 00:14:34;;;;;;;12.17;5.80;;;6.70;99.90;;;;;;5430197;26;20240;-79
2024/04/11 00:17:00;;;;;;;8.43;5.23;;;6.70;50.80;;;;;;5423314;26;20707;-79
2024/04/11 00:19:29;;;;;;;10.10;5.83;;;6.70;1.00;;;;;;5445088;26;20304;-79
2024/04/11 00:21:55;;;;;;;8.37;5.40;;;6.70;1.00;;;;;;5435138;26;20289;-79
2024/04/11 00:24:24;;;;;;;11.70;6.03;;;6.80;1.00;;;;;;5450929;26;20303;-79
2024/04/11 00:26:50;;;;;;;9.10;5.73;;;6.80;1.00;;;;;;5453227;26;20259;-79
2024/04/11 00:29:19;;;;;;;9.53;5.10;;;6.90;1.00;;;;;;5441130;26;20681;-79
2024/04/11 00:31:47;;;;;;;10.63;5.17;;;6.90;1.00;;;;;;5441332;26;20286;-79
2024/04/11 00:34:22;;;;;;;11.00;5.30;;;7.10;1.00;;;;;;5437634;26;20243;-79
2024/04/11 00:36:50;;;;;;;9.80;5.70;;;7.10;1.00;;;;;;5425729;26;20360;-79
2024/04/11 00:39:20;;;;;;;9.83;5.20;;;7.20;1.00;;;;;;5459202;26;20247;-78
2024/04/11 00:41:47;;;;;;;8.40;5.57;;;7.00;1.00;;;;;;5438699;26;20236;-78
2024/04/11 00:44:17;;;;;;;8.43;5.03;;;6.90;1.00;;;;;;5443833;26;20746;-79
2024/04/11 00:46:44;;;;;;;10.33;5.30;;;6.80;1.00;;;;;;5452562;26;20303;-79
2024/04/11 00:49:17;;;;;;;11.10;6.10;;;6.70;1.00;;;;;;5445139;26;20340;-79
2024/04/11 00:51:43;;;;;;;9.73;5.63;;;6.70;9.10;;;;;;5445213;26;20290;-79
2024/04/11 00:54:15;;;;;;;10.50;5.57;;;7.00;1.00;;;;;;5449208;26;20773;-78
2024/04/11 00:56:42;;;;;;;7.53;5.10;;;6.80;1.00;;;;;;5427290;26;20306;-79
2024/04/11 00:59:12;;;;;;;12.67;5.33;;;6.70;1.00;;;;;;5436317;26;20249;-79
2024/04/11 01:01:38;;;;;;;11.43;5.20;;;6.70;1.00;;;;;;5439868;26;20286;-79
2024/04/11 01:04:07;;;;;;;9.87;4.97;;;6.70;1.00;;;;;;5447237;26;20248;-79
2024/04/11 01:07:06;;;;;;;11.13;5.00;;;6.80;1.00;;;;;;5438207;26;20552;-79
2024/04/11 01:09:33;;;;;;;9.00;5.10;;;6.70;1.00;;;;;;5446415;26;20232;-79
2024/04/11 01:12:00;;;;;;;12.77;5.80;;;6.70;75.00;;;;;;5455248;26;20235;-78
2024/04/11 01:14:29;;;;;;;10.10;5.70;;;6.60;99.90;;;;;;5424147;26;20261;-79
2024/04/11 01:16:55;;;;;;;8.53;4.70;;;6.50;99.90;;;;;;5443210;26;20677;-79
2024/04/11 01:19:24;;;;;;;9.03;5.73;;;6.50;99.90;;;;;;5429161;26;20228;-79
2024/04/11 01:21:55;;;;;;;9.03;4.77;;;6.40;99.90;;;;;;5427309;26;20287;-79
2024/04/11 01:24:27;;;;;;;9.00;5.03;;;6.40;99.90;;;;;;5446477;26;20255;-79
2024/04/11 01:26:53;;;;;;;9.37;5.60;;;6.40;99.90;;;;;;5440768;26;20315;-77
2024/04/11 01:29:21;;;;;;;8.10;5.00;;;6.30;99.90;;;;;;5458477;26;20228;-79
2024/04/11 01:31:53;;;;;;;8.57;4.90;;;6.40;99.90;;;;;;5458217;26;20232;-79
2024/04/11 01:34:22;;;;;;;10.10;4.97;;;6.40;1.00;;;;;;5440869;26;20355;-79
2024/04/11 01:36:49;;;;;;;10.27;4.73;;;6.30;99.90;;;;;;5437494;26;20249;-79
2024/04/11 01:39:17;;;;;;;9.37;4.40;;;6.30;99.90;;;;;;5435770;26;20789;-78
2024/04/11 01:41:46;;;;;;;10.17;4.70;;;6.30;99.90;;;;;;5452652;26;20278;-79
2024/04/11 01:44:14;;;;;;;9.30;5.17;;;6.50;99.90;;;;;;5435990;26;20240;-78
2024/04/11 01:46:40;;;;;;;11.13;5.13;;;6.50;1.00;;;;;;5451468;26;20251;-79
2024/04/11 01:49:09;;;;;;;11.33;4.67;;;6.60;99.90;;;;;;5455088;26;20294;-78
2024/04/11 01:51:35;;;;;;;7.90;4.47;;;6.70;1.00;;;;;;5423576;26;20280;-78
2024/04/11 01:54:05;;;;;;;8.20;4.37;;;6.60;1.00;;;;;;5455649;26;20332;-79
2024/04/11 01:56:33;;;;;;;9.30;4.40;;;6.50;1.00;;;;;;5424809;26;20240;-79
2024/04/11 01:59:05;;;;;;;9.00;4.63;;;6.60;1.00;;;;;;5425889;26;20220;-78
2024/04/11 02:01:34;;;;;;;9.50;4.73;;;6.40;1.00;;;;;;5421861;26;20244;-78
2024/04/11 02:04:05;;;;;;;8.67;5.10;;;6.40;99.90;;;;;;5448127;26;20264;-79
2024/04/11 02:06:31;;;;;;;8.30;4.63;;;6.70;76.80;;;;;;5453244;26;20277;-80
2024/04/11 02:09:00;;;;;;;6.67;4.47;;;6.60;1.00;;;;;;5455169;26;20262;-79
2024/04/11 02:11:26;;;;;;;6.97;4.47;;;6.60;1.00;;;;;;5431751;26;20241;-79
2024/04/11 02:13:55;;;;;;;8.47;5.30;;;6.50;1.00;;;;;;5458453;26;20301;-80
2024/04/11 02:16:24;;;;;;;7.87;4.37;;;6.50;1.00;;;;;;5433294;26;20375;-80
2024/04/11 02:18:53;;;;;;;9.33;3.90;;;6.40;1.00;;;;;;5449049;26;20343;-80
2024/04/11 02:21:19;;;;;;;6.80;4.03;;;6.70;1.00;;;;;;5437641;26;20217;-79
2024/04/11 02:23:47;;;;;;;7.53;3.93;;;6.70;1.00;;;;;;5455286;26;20227;-79
2024/04/11 02:26:13;;;;;;;6.87;4.10;;;6.50;99.90;;;;;;5457583;26;20610;-80
2024/04/11 02:28:44;;;;;;;5.80;3.93;;;6.50;99.90;;;;;;5457577;26;20239;-79
2024/04/11 02:31:11;;;;;;;11.50;4.60;;;6.50;1.00;;;;;;5439278;26;20286;-79
2024/04/11 02:33:43;;;;;;;6.53;4.43;;;6.50;99.90;;;;;;5457906;26;20243;-79
2024/04/11 02:36:09;;;;;;;9.70;4.60;;;6.50;1.00;;;;;;5421312;26;20261;-79
2024/04/11 02:38:37;;;;;;;6.80;3.97;;;6.50;1.00;;;;;;5453337;26;20258;-78
2024/04/11 02:41:06;;;;;;;8.20;4.20;;;6.40;1.00;;;;;;5445451;26;20262;-79
2024/04/11 02:43:39;;;;;;;9.00;4.33;;;6.40;99.90;;;;;;5452677;26;20292;-80
2024/04/11 02:46:08;;;;;;;6.70;4.33;;;6.60;1.00;;;;;;5439438;26;20232;-79
2024/04/11 02:48:37;;;;;;;7.73;4.00;;;6.50;1.00;;;;;;5455470;26;20227;-78
2024/04/11 02:51:06;;;;;;;14.13;6.87;;;6.40;1.00;;;;;;5456304;26;20698;-78
2024/04/11 02:53:35;;;;;;;10.13;5.10;;;6.40;1.00;;;;;;5429956;26;20248;-79
2024/04/11 02:56:01;;;;;;;6.93;4.23;;;6.30;1.00;;;;;;5455513;26;20243;-80
2024/04/11 02:58:30;;;;;;;7.30;4.10;;;6.30;1.00;;;;;;5444730;26;20318;-80
2024/04/11 03:01:00;;;;;;;6.47;4.03;;;6.30;1.00;;;;;;5423226;26;20266;-79
2024/04/11 03:03:32;;;;;;;6.50;4.30;;;6.20;1.00;;;;;;5444203;26;20364;-79
2024/04/11 03:06:07;;;;;;;6.07;3.97;;;6.20;1.00;;;;;;5447933;26;20240;-80
2024/04/11 03:08:36;;;;;;;6.40;4.33;;;6.20;1.00;;;;;;5457301;26;20598;-80
2024/04/11 03:11:02;;;;;;;5.10;4.00;;;6.10;1.00;;;;;;5457496;26;20220;-79
2024/04/11 03:13:31;;;;;;;11.23;4.80;;;6.00;1.00;;;;;;5431504;26;20562;-80
2024/04/11 03:15:57;;;;;;;9.07;4.50;;;5.90;95.50;;;;;;5435267;26;20236;-79
2024/04/11 03:18:26;;;;;;;10.50;4.70;;;6.10;99.90;;;;;;5425724;26;20244;-79
2024/04/11 03:20:53;;;;;;;7.83;4.00;;;6.10;1.00;;;;;;5432501;26;20247;-79
2024/04/11 03:23:25;;;;;;;9.53;3.93;;;6.30;1.00;;;;;;5438570;26;20231;-78
2024/04/11 03:25:51;;;;;;;50.40;27.40;;;6.20;1.00;;;;;;5447315;26;20620;-80
2024/04/11 03:28:20;;;;;;;12.60;5.27;;;6.30;1.00;;;;;;5441827;26;20267;-79
2024/04/11 03:30:53;;;;;;;5.97;3.73;;;6.30;1.00;;;;;;5429803;26;20274;-78
2024/04/11 03:33:21;;;;;;;6.23;4.23;;;6.50;99.90;;;;;;5447957;26;20248;-79
2024/04/11 03:35:56;;;;;;;8.27;3.90;;;6.60;9.80;;;;;;5456883;26;20608;-79
2024/04/11 03:38:28;;;;;;;6.23;3.80;;;6.50;1.00;;;;;;5444387;26;20323;-78
2024/04/11 03:40:58;;;;;;;7.90;3.93;;;6.40;1.00;;;;;;5434585;26;20303;-79
2024/04/11 03:43:27;;;;;;;7.90;3.80;;;6.50;1.00;;;;;;5436907;26;20782;-79
2024/04/11 03:45:58;;;;;;;5.63;4.00;;;6.60;1.00;;;;;;5449699;26;20248;-79
2024/04/11 03:48:28;;;;;;;7.50;3.70;;;6.70;1.00;;;;;;5454314;26;20342;-78
2024/04/11 03:50:57;;;;;;;5.83;3.57;;;6.70;1.00;;;;;;5453217;26;20731;-78
2024/04/11 03:53:26;;;;;;;7.87;3.63;;;6.70;1.00;;;;;;5442923;26;20245;-79
2024/04/11 03:55:55;;;;;;;8.80;3.93;;;6.80;1.00;;;;;;5454175;26;20239;-79
2024/04/11 03:58:25;;;;;;;9.47;3.53;;;6.70;99.90;;;;;;5454287;26;20248;-79
2024/04/11 04:00:53;;;;;;;7.93;3.70;;;6.60;1.00;;;;;;5453079;26;20363;-78
2024/04/11 04:03:20;;;;;;;5.57;3.43;;;6.70;1.00;;;;;;5448958;26;20289;-79
2024/04/11 04:05:48;;;;;;;9.60;3.40;;;6.70;1.00;;;;;;5445158;26;20287;-78
2024/04/11 04:08:14;;;;;;;6.00;3.27;;;6.90;99.90;;;;;;5434559;26;20374;-79
2024/04/11 04:10:46;;;;;;;4.13;3.03;;;7.20;99.90;;;;;;5446924;26;20263;-79
2024/04/11 04:13:12;;;;;;;6.93;3.27;;;7.20;1.00;;;;;;5434386;26;20783;-79
2024/04/11 04:15:40;;;;;;;5.43;2.90;;;7.30;1.00;;;;;;5447653;26;20244;-79
2024/04/11 04:18:07;;;;;;;4.63;3.20;;;7.70;1.00;;;;;;5437956;26;20637;-78
2024/04/11 04:20:36;;;;;;;6.53;3.00;;;7.80;1.00;;;;;;5438892;26;20282;-79
2024/04/11 04:23:10;;;;;;;4.50;3.10;;;7.80;1.00;;;;;;5431598;26;20241;-79
2024/04/11 04:25:41;;;;;;;5.87;3.30;;;7.80;1.00;;;;;;5437086;26;20776;-79
2024/04/11 04:28:10;;;;;;;4.63;3.10;;;7.90;99.90;;;;;;5428459;26;20286;-78
2024/04/11 04:30:42;;;;;;;5.37;3.30;;;7.60;99.90;;;;;;5446562;26;20583;-79
2024/04/11 04:33:08;;;;;;;6.43;2.80;;;7.70;99.90;;;;;;5429572;26;20251;-79
2024/04/11 04:35:37;;;;;;;7.27;3.20;;;7.80;99.90;;;;;;5445280;26;20279;-79
2024/04/11 04:38:03;;;;;;;4.23;3.20;;;7.90;99.90;;;;;;5457829;26;20282;-79
2024/04/11 04:40:32;;;;;;;6.53;3.40;;;8.00;99.90;;;;;;5447428;26;20244;-79
2024/04/11 04:42:58;;;;;;;9.10;4.20;;;8.20;99.90;;;;;;5450049;26;20244;-79
2024/04/11 04:45:30;;;;;;;6.33;3.10;;;8.60;99.90;;;;;;5442479;26;20236;-79
2024/04/11 04:47:58;;;;;;;4.83;2.70;;;9.00;1.00;;;;;;5450264;26;20314;-79
2024/04/11 04:50:28;;;;;;;5.90;2.80;;;9.50;1.00;;;;;;5453250;26;20247;-78
2024/04/11 04:52:59;;;;;;;6.07;3.00;;;9.70;1.00;;;;;;5449359;26;20769;-79
2024/04/11 04:55:26;;;;;;;4.47;2.60;;;9.60;1.00;;;;;;5435326;26;20307;-79
2024/04/11 04:57:55;;;;;;;3.57;2.50;;;10.20;1.00;;;;;;5455444;26;20294;-79
2024/04/11 05:00:24;;;;;;;5.10;2.53;;;10.30;1.00;;;;;;5447909;26;20294;-79
2024/04/11 05:02:57;;;;;;;4.80;2.70;;;10.50;1.00;;;;;;5439365;26;20682;-79
2024/04/11 05:05:25;;;;;;;5.57;2.80;;;10.50;1.00;;;;;;5424292;26;20624;-79
2024/04/11 05:07:54;;;;;;;5.53;2.60;;;10.30;99.90;;;;;;5424964;26;20283;-79
2024/04/11 05:10:20;;;;;;;4.43;2.63;;;9.90;99.90;;;;;;5447768;26;20244;-79
2024/04/11 05:12:49;;;;;;;3.57;2.47;;;9.80;99.90;;;;;;5438651;26;20288;-79
2024/04/11 05:15:15;;;;;;;3.80;2.30;;;9.80;99.90;;;;;;5430088;26;20244;-80
2024/04/11 05:17:45;;;;;;;3.53;2.67;;;10.20;99.90;;;;;;5443683;26;20298;-80
2024/04/11 05:20:17;;;;;;;6.17;2.50;;;10.20;99.90;;;;;;5428535;26;20294;-80
2024/04/11 05:22:49;;;;;;;3.77;2.30;;;10.40;99.90;;;;;;5429391;26;20241;-79
2024/04/11 05:25:15;;;;;;;4.60;2.30;;;11.30;99.90;;;;;;5429060;26;20240;-80
2024/04/11 05:27:44;;;;;;;4.77;2.17;;;11.60;99.90;;;;;;5438044;26;20248;-79
2024/04/11 05:30:11;;;;;;;2.97;2.40;;;11.30;65.10;;;;;;5430475;26;20287;-79
2024/04/11 05:32:40;;;;;;;5.27;1.90;;;11.50;38.60;;;;;;5444908;26;20308;-79
2024/04/11 05:35:09;;;;;;;5.70;2.20;;;11.50;11.40;;;;;;5441743;26;20593;-79
2024/04/11 05:37:40;;;;;;;6.77;2.30;;;11.40;1.00;;;;;;5436492;26;20736;-79
2024/04/11 05:40:07;;;;;;;4.27;2.33;;;11.20;1.00;;;;;;5448284;26;20282;-79
2024/04/11 05:42:36;;;;;;;5.60;2.20;;;10.80;1.00;;;;;;5436512;26;20697;-79
2024/04/11 05:45:02;;;;;;;4.93;2.20;;;10.80;1.00;;;;;;5437647;26;21455;-79
2024/04/11 05:47:31;;;;;;;6.70;2.43;;;10.90;1.00;;;;;;5446764;26;20248;-79
2024/04/11 05:49:57;;;;;;;3.90;2.17;;;11.00;1.00;;;;;;5451490;26;20235;-80
2024/04/11 05:52:27;;;;;;;7.63;2.60;;;10.90;1.00;;;;;;5436257;26;20282;-79
2024/04/11 05:54:56;;;;;;;3.73;2.00;;;10.90;1.00;;;;;;5449674;26;20240;-79
2024/04/11 05:57:25;;;;;;;3.80;1.90;;;11.40;1.00;;;;;;5445354;26;20347;-79
2024/04/11 05:59:51;;;;;;;3.33;1.90;;;11.70;1.00;;;;;;5454311;26;20251;-78
2024/04/11 06:02:20;;;;;;;2.13;1.70;;;11.80;1.00;;;;;;5445109;26;20303;-79
2024/04/11 06:04:47;;;;;;;7.30;1.80;;;11.60;1.00;;;;;;5455947;26;20240;-80
2024/04/11 06:07:15;;;;;;;5.73;2.30;;;11.50;1.00;;;;;;5438303;26;20322;-79
2024/04/11 06:09:41;;;;;;;3.17;1.60;;;11.50;1.00;;;;;;5425182;26;20321;-80
2024/04/11 06:12:13;;;;;;;3.53;1.60;;;11.40;1.00;;;;;;5427473;26;20664;-80
2024/04/11 06:14:39;;;;;;;2.40;1.53;;;11.60;1.00;;;;;;5438494;26;20320;-80
2024/04/11 06:17:07;;;;;;;5.53;1.90;;;11.60;1.00;;;;;;5440537;26;20252;-79
2024/04/11 06:19:35;;;;;;;4.90;2.00;;;11.70;1.00;;;;;;5428874;26;20271;-80
2024/04/11 06:22:06;;;;;;;6.43;2.03;;;11.60;1.00;;;;;;5438239;26;20357;-79
2024/04/11 06:24:35;;;;;;;4.47;1.70;;;11.60;1.00;;;;;;5446208;26;20343;-80
2024/04/11 06:27:05;;;;;;;4.17;1.87;;;11.60;1.00;;;;;;5430987;26;20450;-79
2024/04/11 06:29:37;;;;;;;4.67;1.67;;;11.70;1.00;;;;;;5434373;26;20244;-80
2024/04/11 06:32:07;;;;;;;2.07;1.60;;;11.60;1.00;;;;;;5450024;26;20282;-79
2024/04/11 06:34:33;;;;;;;3.07;1.73;;;11.60;1.00;;;;;;5444839;26;20603;-79
2024/04/11 06:37:01;;;;;;;2.63;1.87;;;11.60;1.00;;;;;;5440341;26;20243;-79
2024/04/11 06:39:27;;;;;;;4.00;2.23;;;11.60;1.00;;;;;;5448489;26;20243;-77
2024/04/11 06:41:58;;;;;;;4.97;2.20;;;11.50;1.00;;;;;;5442720;26;20279;-79
2024/04/11 06:44:24;;;;;;;3.53;1.70;;;11.60;1.00;;;;;;5439924;26;20807;-79
2024/04/11 06:46:55;;;;;;;3.03;1.77;;;11.50;1.00;;;;;;5438088;26;20240;-79
2024/04/11 06:49:22;;;;;;;3.73;1.77;;;11.50;1.00;;;;;;5440459;26;20627;-79
2024/04/11 06:51:51;;;;;;;3.60;2.20;;;11.50;1.00;;;;;;5447518;26;20248;-79
2024/04/11 06:54:18;;;;;;;5.80;2.37;;;11.60;1.00;;;;;;5438234;26;20287;-79
2024/04/11 06:56:49;;;;;;;5.47;2.40;;;11.60;1.00;;;;;;5440137;26;20247;-79
2024/04/11 06:59:17;;;;;;;4.07;1.97;;;11.70;1.00;;;;;;5456721;26;20294;-79
2024/04/11 07:01:47;;;;;;;2.20;2.00;;;11.70;1.00;;;;;;5453216;26;20240;-79
2024/04/11 07:04:16;;;;;;;3.33;2.43;;;11.70;1.00;;;;;;5437490;26;20870;-79
2024/04/11 07:06:46;;;;;;;4.37;2.27;;;11.70;1.00;;;;;;5447404;26;20247;-80
2024/04/11 07:09:12;;;;;;;6.77;2.30;;;11.80;1.00;;;;;;5439789;26;20256;-79
2024/04/11 07:11:42;;;;;;;3.93;2.00;;;11.90;1.00;;;;;;5453387;26;20749;-79
2024/04/11 07:14:15;;;;;;;7.30;2.50;;;11.90;1.00;;;;;;5441421;26;20281;-78
2024/04/11 07:16:44;;;;;;;6.10;2.10;;;11.90;1.00;;;;;;5441737;26;20243;-79
2024/04/11 07:19:11;;;;;;;5.90;2.47;;;11.90;1.00;;;;;;5430786;26;20251;-79
2024/04/11 07:21:43;;;;;;;5.17;2.03;;;12.00;1.00;;;;;;5434572;26;20235;-79
2024/04/11 07:24:09;;;;;;;2.77;1.80;;;12.00;1.00;;;;;;5433985;26;20289;-78
2024/04/11 07:26:38;;;;;;;5.13;1.90;;;12.00;1.00;;;;;;5431286;26;20292;-79
2024/04/11 07:29:06;;;;;;;5.47;2.00;;;12.00;1.00;;;;;;5434952;26;20355;-79
2024/04/11 07:31:36;;;;;;;5.03;2.00;;;12.10;1.00;;;;;;5436151;26;20762;-79
2024/04/11 07:34:02;;;;;;;6.03;2.13;;;12.10;1.00;;;;;;5446753;26;20236;-78
2024/04/11 07:36:32;;;;;;;5.37;2.27;;;12.10;1.00;;;;;;5440577;26;20243;-79
2024/04/11 07:39:01;;;;;;;3.77;1.90;;;12.20;1.00;;;;;;5433173;26;20610;-78
2024/04/11 07:41:44;;;;;;;2.73;2.00;;;12.30;1.00;;;;;;5443060;26;20661;-78
2024/04/11 07:44:11;;;;;;;2.53;1.77;;;12.40;1.00;;;;;;5436968;26;20669;-79
2024/04/11 07:46:40;;;;;;;4.47;2.03;;;12.40;1.00;;;;;;5441539;26;20243;-80
2024/04/11 07:49:07;;;;;;;3.93;1.60;;;12.40;1.00;;;;;;5450598;26;20239;-78
2024/04/11 07:51:36;;;;;;;4.60;2.00;;;12.50;1.00;;;;;;5452031;26;20292;-79
2024/04/11 07:54:07;;;;;;;2.90;1.80;;;12.50;1.00;;;;;;5429004;26;20240;-78
2024/04/11 07:56:36;;;;;;;4.43;1.53;;;12.50;1.00;;;;;;5447026;26;20247;-78
2024/04/11 07:59:02;;;;;;;5.00;1.87;;;12.50;1.00;;;;;;5446110;26;20595;-79
2024/04/11 08:01:34;;;;;;;2.23;1.60;;;12.50;1.00;;;;;;5439583;26;20286;-79
2024/04/11 08:04:02;;;;;;;2.40;1.67;;;12.60;1.00;;;;;;5449545;26;20765;-79
2024/04/11 08:06:31;;;;;;;4.60;1.80;;;12.60;1.00;;;;;;5442259;26;20243;-78
2024/04/11 08:08:57;;;;;;;5.50;1.80;;;12.60;1.00;;;;;;5449059;26;20249;-79
2024/04/11 08:11:30;;;;;;;4.40;1.57;;;12.60;1.00;;;;;;5438298;26;20291;-79
2024/04/11 08:13:57;;;;;;;7.77;1.90;;;12.60;1.00;;;;;;5437889;26;20235;-79
2024/04/11 08:16:26;;;;;;;3.33;1.70;;;12.60;1.00;;;;;;5442457;26;20297;-79
2024/04/11 08:18:52;;;;;;;4.27;1.70;;;12.60;1.00;;;;;;5429939;26;20360;-79
2024/04/11 08:21:21;;;;;;;6.63;2.10;;;12.60;1.00;;;;;;5439575;26;20255;-79
2024/04/11 08:23:47;;;;;;;4.83;1.90;;;12.70;1.00;;;;;;5432362;26;20232;-78
2024/04/11 08:26:16;;;;;;;4.50;1.90;;;12.70;1.00;;;;;;5433747;26;20622;-78
2024/04/11 08:28:44;;;;;;;8.63;1.90;;;12.70;1.00;;;;;;5430191;26;20240;-78
2024/04/11 08:31:14;;;;;;;5.80;1.90;;;12.80;1.00;;;;;;5445294;26;20239;-78
2024/04/11 08:33:40;;;;;;;6.30;1.87;;;12.80;1.00;;;;;;5436612;26;20320;-79
2024/04/11 08:36:09;;;;;;;6.40;1.90;;;12.80;1.00;;;;;;5438827;26;20235;-79
2024/04/11 08:38:40;;;;;;;5.87;1.70;;;12.80;1.00;;;;;;5429081;26;20256;-79
2024/04/11 08:41:10;;;;;;;4.93;1.77;;;12.90;1.00;;;;;;5428751;26;20288;-79
2024/04/11 08:43:36;;;;;;;3.80;1.83;;;12.90;1.00;;;;;;5442229;26;20248;-79
2024/04/11 08:46:10;;;;;;;4.80;1.87;;;12.90;1.00;;;;;;5441921;26;20624;-79
2024/04/11 08:48:37;;;;;;;6.83;2.07;;;12.90;1.00;;;;;;5434411;26;20235;-79
2024/04/11 08:51:11;;;;;;;4.33;1.80;;;12.90;1.00;;;;;;5445854;26;20335;-78
2024/04/11 08:53:39;;;;;;;6.47;2.07;;;12.80;1.00;;;;;;5445576;26;20290;-79
2024/04/11 08:56:11;;;;;;;5.03;2.33;;;12.90;1.00;;;;;;5447600;26;20248;-78
2024/04/11 08:58:38;;;;;;;4.70;1.90;;;13.00;1.00;;;;;;5450829;26;20534;-78
2024/04/11 09:01:11;;;;;;;3.97;1.80;;;13.00;1.00;;;;;;5452332;26;20244;-79
2024/04/11 09:03:40;;;;;;;3.73;1.83;;;13.10;1.00;;;;;;5440917;26;20241;-79
2024/04/11 09:06:12;;;;;;;5.27;2.00;;;13.00;1.00;;;;;;5444128;26;20291;-79
2024/04/11 09:08:39;;;;;;;4.87;1.80;;;13.10;1.00;;;;;;5433952;26;20306;-79
2024/04/11 09:11:08;;;;;;;3.53;1.80;;;13.10;1.00;;;;;;5428241;26;20270;-78
2024/04/11 09:13:36;;;;;;;6.93;2.40;;;13.10;1.00;;;;;;5436981;26;20764;-79
2024/04/11 09:16:06;;;;;;;5.53;1.73;;;13.10;1.00;;;;;;5439368;26;20248;-78
2024/04/11 09:18:35;;;;;;;3.53;2.20;;;13.20;1.00;;;;;;5441062;26;20291;-79
2024/04/11 09:21:06;;;;;;;4.60;1.60;;;13.20;1.00;;;;;;5449943;26;20247;-79
2024/04/11 09:23:34;;;;;;;4.23;1.50;;;13.30;1.00;;;;;;5437758;26;20247;-79
2024/04/11 09:26:03;;;;;;;4.37;2.27;;;13.20;1.00;;;;;;5440471;26;20744;-78
2024/04/11 09:28:29;;;;;;;3.33;1.80;;;13.30;1.00;;;;;;5441020;26;20264;-79
2024/04/11 09:30:58;;;;;;;3.77;1.67;;;13.40;1.00;;;;;;5443386;26;20734;-79
2024/04/11 09:33:25;;;;;;;4.00;2.00;;;13.50;1.00;;;;;;5447019;26;20240;-79
2024/04/11 09:35:58;;;;;;;2.90;1.87;;;13.50;1.00;;;;;;5443414;26;20237;-79
2024/04/11 09:38:26;;;;;;;8.30;1.80;;;13.40;1.00;;;;;;5445574;26;20274;-78
2024/04/11 09:40:56;;;;;;;2.72;1.85;;;13.50;1.00;;;;;;5436106;26;20240;-79
2024/04/11 09:43:27;;;;;;;3.40;1.67;;;13.40;1.00;;;;;;5439561;26;20236;-78
2024/04/11 09:46:04;;;;;;;4.90;1.70;;;13.50;1.00;;;;;;5448597;26;20243;-79
2024/04/11 09:48:31;;;;;;;5.77;1.80;;;13.40;1.00;;;;;;5437134;26;20244;-79
2024/04/11 09:51:05;;;;;;;7.20;1.60;;;13.40;1.00;;;;;;5448469;26;20248;-78
2024/04/11 09:53:36;;;;;;;5.60;1.70;;;13.40;1.00;;;;;;5450820;26;20243;-78
2024/04/11 09:56:08;;;;;;;4.73;1.83;;;13.50;1.00;;;;;;5447744;26;20729;-79
2024/04/11 09:58:38;;;;;;;9.53;2.20;;;13.50;1.00;;;;;;5447984;26;20243;-79
2024/04/11 10:01:29;;;;;;;3.87;1.57;;;13.50;1.00;;;;;;5446655;26;20277;-79
2024/04/11 10:04:00;;;;;;;7.00;1.83;;;13.60;1.00;;;;;;5445335;26;20630;-78
2024/04/11 10:06:35;;;;;;;4.50;1.73;;;13.70;29.70;;;;;;5436608;26;20308;-79
2024/04/11 10:09:11;;;;;;;2.58;1.52;;;13.70;1.00;;;;;;5434734;26;20850;-79
2024/04/11 10:11:45;;;;;;;4.47;1.70;;;13.70;1.00;;;;;;5437846;26;20242;-78
2024/04/11 10:14:16;;;;;;;4.00;1.67;;;13.70;1.00;;;;;;5436496;26;20759;-78
2024/04/11 10:16:55;;;;;;;4.87;2.10;;;13.80;1.00;;;;;;5449771;26;20248;-79
2024/04/11 10:19:26;;;;;;;6.20;1.80;;;13.90;1.00;;;;;;5432845;26;20240;-79
2024/04/11 10:22:04;;;;;;;4.50;1.70;;;13.90;1.00;;;;;;5439079;26;20237;-78
2024/04/11 10:24:32;;;;;;;4.37;1.50;;;14.00;1.00;;;;;;5444085;26;20246;-79
2024/04/11 10:27:18;;;;;;;3.67;1.20;;;14.10;1.00;;;;;;5442138;26;20302;-79
2024/04/11 10:29:46;;;;;;;3.47;1.87;;;14.10;1.00;;;;;;5441062;26;20796;-79
2024/04/11 10:32:21;;;;;;;3.73;2.00;;;14.10;1.00;;;;;;5446546;26;20294;-79
2024/04/11 10:34:55;;;;;;;6.17;1.90;;;14.10;1.00;;;;;;5442121;26;20285;-78
2024/04/11 10:37:29;;;;;;;5.57;1.90;;;14.10;1.00;;;;;;5436671;26;20286;-79
2024/04/11 10:39:57;;;;;;;5.93;1.60;;;14.10;1.00;;;;;;5441860;26;20260;-79
2024/04/11 10:42:36;;;;;;;3.13;1.93;;;14.30;1.00;;;;;;5445349;26;20405;-78
2024/04/11 10:45:04;;;;;;;4.68;1.70;;;14.30;1.00;;;;;;5441875;26;20725;-79
2024/04/11 10:47:35;;;;;;;5.70;1.90;;;14.40;1.00;;;;;;5443598;26;20236;-79
2024/04/11 10:50:02;;;;;;;4.78;1.65;;;14.50;1.00;;;;;;5442591;26;20945;-79
2024/04/11 10:52:34;;;;;;;4.85;1.92;;;14.50;1.00;;;;;;5443848;26;20295;-79
2024/04/11 10:55:12;;;;;;;3.30;1.77;;;14.30;1.00;;;;;;5444614;26;21567;-79
2024/04/11 10:57:44;;;;;;;4.03;1.70;;;14.40;1.00;;;;;;5445396;26;20252;-78
2024/04/11 11:00:12;;;;;;;6.30;2.13;;;14.40;1.00;;;;;;5440527;26;20278;-79
2024/04/11 11:02:44;;;;;;;4.43;1.70;;;14.60;1.00;;;;;;5447564;26;20326;-78
2024/04/11 11:05:10;;;;;;;5.22;1.67;;;14.60;1.00;;;;;;5441237;26;20316;-77
2024/04/11 11:07:42;;;;;;;5.07;1.98;;;14.50;1.00;;;;;;5440552;26;20243;-79
2024/04/11 11:10:11;;;;;;;3.10;1.58;;;14.60;1.00;;;;;;5431908;26;20286;-79
2024/04/11 11:12:42;;;;;;;4.75;1.85;;;14.70;1.00;;;;;;5433871;26;20249;-79
2024/04/11 11:15:13;;;;;;;3.85;1.45;;;14.70;1.00;;;;;;5440729;26;20244;-78
2024/04/11 11:17:45;;;;;;;5.30;1.70;;;14.70;1.00;;;;;;5431499;26;20326;-78
2024/04/11 11:20:13;;;;;;;5.10;1.80;;;14.60;1.00;;;;;;5431034;26;20323;-80
2024/04/11 11:22:44;;;;;;;11.98;2.50;;;14.50;1.00;;;;;;5436574;26;20345;-79
2024/04/11 11:25:11;;;;;;;5.32;1.60;;;14.60;1.00;;;;;;5447193;26;20415;-80
2024/04/11 11:27:41;;;;;;;4.15;1.80;;;14.60;1.00;;;;;;5427902;26;20693;-79
2024/04/11 11:30:15;;;;;;;5.28;1.63;;;14.50;1.00;;;;;;5433107;26;20279;-78
2024/04/11 11:32:44;;;;;;;3.83;1.98;;;14.60;1.00;;;;;;5436320;26;20242;-80
2024/04/11 11:35:12;;;;;;;6.20;2.20;;;14.60;1.00;;;;;;5447709;26;20248;-79
2024/04/11 11:37:41;;;;;;;4.32;1.70;;;14.60;1.00;;;;;;5432546;26;20263;-79
2024/04/11 11:42:56;;;;;;;5.22;1.98;;;14.90;1.00;;;;;;5444432;26;20282;-78
2024/04/11 11:45:26;;;;;;;2.95;1.75;;;15.00;1.00;;;;;;5447555;26;20243;-78
2024/04/11 11:47:57;;;;;;;6.68;2.10;;;15.10;1.00;;;;;;5446819;26;20235;-77
2024/04/11 11:50:33;;;;;;;4.63;1.85;;;15.00;1.00;;;;;;5451104;26;20274;-79
2024/04/11 11:53:24;;;;;;;4.82;2.10;;;15.10;1.00;;;;;;5431025;26;20236;-77
2024/04/11 11:55:57;;;;;;;7.47;1.80;;;15.00;1.00;;;;;;5437244;26;20248;-77
2024/04/11 11:58:29;;;;;;;4.65;1.80;;;15.10;1.00;;;;;;5452908;26;20247;-77
2024/04/11 12:00:59;;;;;;;2.63;1.52;;;15.30;1.00;;;;;;5438742;26;20295;-78
2024/04/11 12:03:31;;;;;;;5.28;1.67;;;15.30;1.00;;;;;;5448774;26;20590;-78
2024/04/11 12:05:58;;;;;;;4.70;1.77;;;15.30;1.00;;;;;;5441075;26;20339;-78
2024/04/11 12:08:27;;;;;;;4.63;1.90;;;15.10;1.00;;;;;;5431998;26;20825;-77
2024/04/11 12:13:45;;;;;;;2.60;1.88;;;15.50;1.00;;;;;;5447332;26;20308;-78
2024/04/11 12:16:15;;;;;;;4.32;1.90;;;15.60;1.00;;;;;;5431620;26;20277;-77
2024/04/11 12:18:46;;;;;;;4.75;1.58;;;15.90;1.00;;;;;;5447958;26;20253;-77
2024/04/11 12:21:18;;;;;;;4.53;2.13;;;16.00;1.00;;;;;;5429541;26;20278;-77
2024/04/11 12:23:48;;;;;;;8.10;1.92;;;16.20;1.00;;;;;;5444325;26;20289;-77
2024/04/11 12:26:18;;;;;;;7.45;2.42;;;16.10;1.00;;;;;;5440150;26;20247;-77
2024/04/11 12:28:50;;;;;;;5.30;1.60;;;16.00;1.00;;;;;;5438040;26;20252;-79
2024/04/11 12:31:16;;;;;;;3.90;1.88;;;15.90;1.00;;;;;;5431780;26;20245;-79
2024/04/11 12:33:46;;;;;;;5.38;1.63;;;15.80;1.00;;;;;;5444920;26;20387;-78
2024/04/11 12:39:04;;;;;;;4.82;2.05;;;15.70;1.00;;;;;;5444435;26;20273;-77
2024/04/11 12:41:33;;;;;;;5.47;1.50;;;15.80;1.00;;;;;;5436043;26;20302;-77
2024/04/11 12:44:02;;;;;;;4.95;1.67;;;15.90;1.00;;;;;;5434143;26;20273;-78
2024/04/11 12:46:31;;;;;;;5.30;2.10;;;16.00;1.00;;;;;;5432653;26;20737;-79
2024/04/11 12:48:57;;;;;;;4.07;1.73;;;16.10;1.00;;;;;;5441443;26;20249;-78
2024/04/11 12:51:30;;;;;;;5.88;1.77;;;16.30;1.00;;;;;;5425028;26;20817;-78
2024/04/11 12:53:56;;;;;;;6.15;2.13;;;16.00;1.00;;;;;;5443918;26;20347;-77
2024/04/11 12:56:25;;;;;;;7.28;3.00;;;16.00;1.00;;;;;;5434341;26;20236;-78
2024/04/11 12:59:05;;;;;;;5.20;1.80;;;16.30;1.00;;;;;;5428446;26;20242;-78
2024/04/11 13:01:36;;;;;;;2.78;1.80;;;16.40;1.00;;;;;;5439606;26;20270;-78
2024/04/11 13:04:08;;;;;;;6.10;1.98;;;16.30;1.00;;;;;;5445845;26;20271;-78
2024/04/11 13:06:48;;;;;;;4.85;2.10;;;16.30;1.00;;;;;;5438420;26;20765;-78
2024/04/11 13:09:18;;;;;;;4.88;1.73;;;16.50;1.00;;;;;;5429840;26;20244;-78
2024/04/11 13:11:48;;;;;;;5.68;2.20;;;16.40;1.00;;;;;;5437343;26;20257;-77
2024/04/11 13:14:17;;;;;;;5.38;1.70;;;16.40;1.00;;;;;;5444584;26;20277;-79
2024/04/11 13:17:00;;;;;;;3.58;1.70;;;16.30;1.00;;;;;;5432024;26;20244;-78
2024/04/11 13:19:27;;;;;;;5.18;1.77;;;16.40;1.00;;;;;;5435702;26;20296;-79